Time;durP1;ratioP1;P1;durP2;ratioP2;P2;SDS_P1;SDS_P2;PMS_P1;PMS_P2;Temp;Humidity;BMP_temperature;BMP_pressure;BME280_temperature;BME280_humidity;BME280_pressure;Samples;Min_cycle;Max_cycle;Signal;HPM_P1;HPM_P2
2021/08/08 00:02:02;;;;;;;;;;;15.60;99.90;;;;;;5059922;28;19921;-75
2021/08/08 00:04:27;;;;;;;;;;;15.70;99.90;;;;;;5072328;28;19912;-75
2021/08/08 00:06:53;;;;;;;;;;;15.70;99.90;;;;;;5065528;28;20196;-75
2021/08/08 00:09:19;;;;;;;;;;;15.70;99.90;;;;;;5064221;28;19920;-75
2021/08/08 00:11:44;;;;;;;;;;;15.70;99.90;;;;;;5060731;28;19912;-77
2021/08/08 00:14:10;;;;;;;;;;;15.70;99.90;;;;;;5064699;28;20000;-75
2021/08/08 00:16:36;;;;;;;;;;;15.70;99.90;;;;;;5064982;28;19920;-76
2021/08/08 00:19:02;;;;;;;;;;;15.70;99.90;;;;;;5073639;28;19938;-77
2021/08/08 00:21:27;;;;;;;;;;;15.70;99.90;;;;;;5057772;28;20099;-78
2021/08/08 00:23:53;;;;;;;;;;;15.70;99.90;;;;;;5065994;28;19912;-76
2021/08/08 00:26:18;;;;;;;;;;;15.80;99.90;;;;;;5058817;28;20589;-78
2021/08/08 00:28:48;;;;;;;;;;;15.80;99.90;;;;;;5072567;28;20382;-79
2021/08/08 00:31:13;;;;;;;;;;;15.80;99.90;;;;;;5062550;28;19912;-76
2021/08/08 00:33:39;;;;;;;;;;;15.80;99.90;;;;;;5072302;28;19932;-75
2021/08/08 00:36:04;;;;;;;;;;;15.80;99.90;;;;;;5064438;28;19963;-75
2021/08/08 00:38:30;;;;;;;;;;;15.80;99.90;;;;;;5062155;28;20227;-76
2021/08/08 00:40:55;;;;;;;;;;;15.80;99.90;;;;;;5065743;28;19921;-75
2021/08/08 00:43:21;;;;;;;;;;;15.80;99.90;;;;;;5066930;28;19913;-75
2021/08/08 00:45:46;;;;;;;;;;;15.80;99.90;;;;;;5075137;28;19916;-75
2021/08/08 00:48:12;;;;;;;;;;;15.80;99.90;;;;;;5084556;28;19919;-74
2021/08/08 00:50:38;;;;;;;;;;;15.70;99.90;;;;;;5077995;28;19912;-75
2021/08/08 00:53:05;;;;;;;;;;;15.80;99.90;;;;;;5078637;28;19912;-74
2021/08/08 00:55:30;;;;;;;;;;;15.80;99.90;;;;;;5082119;28;19905;-76
2021/08/08 00:57:56;;;;;;;;;;;15.80;99.90;;;;;;5074428;28;19934;-76
2021/08/08 01:00:21;;;;;;;;;;;15.70;99.90;;;;;;5074207;28;19919;-74
2021/08/08 01:02:49;;;;;;;;;;;15.70;99.90;;;;;;5062376;28;20220;-75
2021/08/08 01:05:18;;;;;;;;;;;15.70;99.90;;;;;;5077840;28;19909;-74
2021/08/08 01:07:54;;;;;;;;;;;15.70;99.90;;;;;;5077012;28;19912;-76
2021/08/08 01:10:20;;;;;;;;;;;15.70;99.90;;;;;;5088158;28;19912;-74
2021/08/08 01:12:48;;;;;;;;;;;15.60;99.90;;;;;;5073043;28;20315;-75
2021/08/08 01:15:13;;;;;;;;;;;15.70;99.90;;;;;;5076549;28;20011;-75
2021/08/08 01:17:41;;;;;;;;;;;15.70;99.90;;;;;;5093008;28;20003;-75
2021/08/08 01:20:08;;;;;;;;;;;15.70;99.90;;;;;;5080862;28;19908;-83
2021/08/08 01:22:34;;;;;;;;;;;15.70;99.90;;;;;;5069967;28;19920;-76
2021/08/08 01:25:01;;;;;;;;;;;15.70;99.90;;;;;;5075550;28;19920;-79
2021/08/08 01:27:27;;;;;;;;;;;15.70;99.90;;;;;;5077268;28;19969;-76
2021/08/08 01:29:53;;;;;;;;;;;15.70;99.90;;;;;;5072434;28;19959;-76
2021/08/08 01:32:19;;;;;;;;;;;15.70;99.90;;;;;;5069720;28;19920;-80
2021/08/08 01:34:45;;;;;;;;;;;15.70;99.90;;;;;;5058273;28;19921;-77
2021/08/08 01:37:10;;;;;;;;;;;15.70;99.90;;;;;;5055731;28;19913;-77
2021/08/08 01:39:37;;;;;;;;;;;15.70;99.90;;;;;;5072279;28;19916;-77
2021/08/08 01:42:08;;;;;;;;;;;15.70;99.90;;;;;;5073815;28;20497;-79
2021/08/08 01:44:39;;;;;;;;;;;15.80;99.90;;;;;;5076269;28;19921;-78
2021/08/08 01:47:05;;;;;;;;;;;15.80;99.90;;;;;;5061728;28;19913;-79
2021/08/08 01:49:32;;;;;;;;;;;15.80;99.90;;;;;;5072855;28;19974;-79
2021/08/08 01:51:58;;;;;;;;;;;15.80;99.90;;;;;;5078234;28;19960;-78
2021/08/08 01:54:24;;;;;;;;;;;15.80;99.90;;;;;;5075622;28;19919;-78
2021/08/08 01:56:51;;;;;;;;;;;15.90;99.90;;;;;;5071550;28;19916;-78
2021/08/08 01:59:17;;;;;;;;;;;15.90;99.90;;;;;;5066763;28;19951;-78
2021/08/08 02:01:43;;;;;;;;;;;15.90;99.90;;;;;;5069779;28;19924;-78
2021/08/08 02:04:26;;;;;;;;;;;16.00;99.90;;;;;;5068915;28;19932;-79
2021/08/08 02:06:51;;;;;;;;;;;16.00;99.90;;;;;;5071799;28;20299;-77
2021/08/08 02:09:17;;;;;;;;;;;15.90;99.90;;;;;;5079710;28;19924;-80
2021/08/08 02:11:43;;;;;;;;;;;16.00;99.90;;;;;;5074161;28;19913;-78
2021/08/08 02:14:09;;;;;;;;;;;16.00;99.90;;;;;;5067986;28;19917;-79
2021/08/08 02:16:34;;;;;;;;;;;16.00;99.90;;;;;;5072268;28;20353;-77
2021/08/08 02:19:00;;;;;;;;;;;16.00;99.90;;;;;;5073314;28;20268;-78
2021/08/08 02:21:26;;;;;;;;;;;16.00;99.90;;;;;;5075663;28;19917;-76
2021/08/08 02:23:51;;;;;;;;;;;16.00;99.90;;;;;;5078604;28;19908;-78
2021/08/08 02:26:18;;;;;;;;;;;16.00;99.90;;;;;;5072390;28;19943;-77
2021/08/08 02:28:43;;;;;;;;;;;16.00;99.90;;;;;;5071453;28;19919;-78
2021/08/08 02:31:11;;;;;;;;;;;16.00;99.90;;;;;;5075964;28;19916;-77
2021/08/08 02:33:36;;;;;;;;;;;16.10;99.90;;;;;;5075079;28;19916;-76
2021/08/08 02:36:02;;;;;;;;;;;16.10;99.90;;;;;;5081556;28;19920;-78
2021/08/08 02:38:27;;;;;;;;;;;16.10;99.90;;;;;;5070881;28;20311;-81
2021/08/08 02:40:53;;;;;;;;;;;16.10;99.90;;;;;;5067458;28;19923;-76
2021/08/08 02:43:18;;;;;;;;;;;16.10;99.90;;;;;;5073324;28;19917;-78
2021/08/08 02:45:49;;;;;;;;;;;16.10;99.90;;;;;;5075444;28;20318;-83
2021/08/08 02:48:15;;;;;;;;;;;16.10;99.90;;;;;;5074873;28;19916;-80
2021/08/08 02:50:40;;;;;;;;;;;16.10;99.90;;;;;;5075134;28;19909;-78
2021/08/08 02:53:06;;;;;;;;;;;16.10;99.90;;;;;;5073827;28;20337;-80
2021/08/08 02:55:32;;;;;;;;;;;16.10;99.90;;;;;;5064732;28;19925;-77
2021/08/08 02:57:57;;;;;;;;;;;16.10;99.90;;;;;;5073064;28;19915;-79
2021/08/08 03:00:23;;;;;;;;;;;16.00;99.90;;;;;;5086034;28;19921;-78
2021/08/08 03:02:48;;;;;;;;;;;16.10;99.90;;;;;;5071882;28;19921;-78
2021/08/08 03:05:14;;;;;;;;;;;16.00;99.90;;;;;;5077012;28;19916;-79
2021/08/08 03:07:40;;;;;;;;;;;16.00;99.90;;;;;;5082787;28;19921;-78
2021/08/08 03:10:06;;;;;;;;;;;16.00;99.90;;;;;;5069002;28;20015;-92
2021/08/08 03:12:31;;;;;;;;;;;16.00;99.90;;;;;;5069707;28;19999;-79
2021/08/08 03:14:57;;;;;;;;;;;16.00;99.90;;;;;;5091103;28;20003;-77
2021/08/08 03:17:22;;;;;;;;;;;16.00;99.90;;;;;;5086452;28;19961;-78
2021/08/08 03:19:48;;;;;;;;;;;16.00;99.90;;;;;;5064780;28;19916;-76
2021/08/08 03:22:14;;;;;;;;;;;16.00;99.90;;;;;;5068852;28;19916;-77
2021/08/08 03:24:39;;;;;;;;;;;16.00;99.90;;;;;;5068427;28;19920;-76
2021/08/08 03:27:05;;;;;;;;;;;15.90;99.90;;;;;;5075294;28;21486;-76
2021/08/08 03:29:30;;;;;;;;;;;15.90;99.90;;;;;;5087808;28;19927;-77
2021/08/08 03:31:56;;;;;;;;;;;15.90;99.90;;;;;;5086488;28;19916;-76
2021/08/08 03:34:22;;;;;;;;;;;15.90;99.90;;;;;;5090074;28;19916;-77
2021/08/08 03:36:47;;;;;;;;;;;15.90;99.90;;;;;;5091291;28;20212;-76
2021/08/08 03:39:13;;;;;;;;;;;15.90;99.90;;;;;;5083350;28;19912;-77
2021/08/08 03:41:38;;;;;;;;;;;15.90;99.90;;;;;;5088593;28;19963;-76
2021/08/08 03:44:04;;;;;;;;;;;15.90;99.90;;;;;;5090836;28;19912;-78
2021/08/08 03:46:30;;;;;;;;;;;15.90;99.90;;;;;;5088702;28;19919;-77
2021/08/08 03:48:55;;;;;;;;;;;15.90;99.90;;;;;;5088783;28;19912;-87
2021/08/08 03:51:21;;;;;;;;;;;15.90;99.90;;;;;;5082679;28;20255;-76
2021/08/08 03:53:46;;;;;;;;;;;15.90;99.90;;;;;;5091916;28;19918;-77
2021/08/08 03:56:12;;;;;;;;;;;15.80;99.90;;;;;;5090960;28;19935;-78
2021/08/08 03:58:37;;;;;;;;;;;15.80;99.90;;;;;;5086108;28;19970;-77
2021/08/08 04:01:03;;;;;;;;;;;15.80;99.90;;;;;;5088060;28;19923;-78
2021/08/08 04:03:29;;;;;;;;;;;15.80;99.90;;;;;;5085642;28;19927;-77
2021/08/08 04:05:55;;;;;;;;;;;15.80;99.90;;;;;;5090852;28;19952;-77
2021/08/08 04:08:20;;;;;;;;;;;15.80;99.90;;;;;;5087427;28;20314;-80
2021/08/08 04:10:46;;;;;;;;;;;15.80;99.90;;;;;;5090325;28;19908;-77
2021/08/08 04:13:11;;;;;;;;;;;15.70;99.90;;;;;;5092507;28;20332;-76
2021/08/08 04:15:37;;;;;;;;;;;15.70;99.90;;;;;;5077935;28;19920;-78
2021/08/08 04:18:03;;;;;;;;;;;15.60;99.90;;;;;;5068903;28;19974;-76
2021/08/08 04:20:28;;;;;;;;;;;15.60;99.90;;;;;;5065527;28;19912;-79
2021/08/08 04:22:54;;;;;;;;;;;15.60;99.90;;;;;;5069336;28;19935;-78
2021/08/08 04:25:19;;;;;;;;;;;15.60;99.90;;;;;;5064933;28;19923;-80
2021/08/08 04:27:45;;;;;;;;;;;15.60;99.90;;;;;;5074996;28;20266;-80
2021/08/08 04:30:11;;;;;;;;;;;15.50;99.90;;;;;;5062008;28;19960;-78
2021/08/08 04:32:36;;;;;;;;;;;15.50;99.90;;;;;;5070469;28;19920;-78
2021/08/08 04:35:02;;;;;;;;;;;15.50;99.90;;;;;;5065350;28;20219;-77
2021/08/08 04:37:27;;;;;;;;;;;15.40;99.90;;;;;;5065831;28;20231;-78
2021/08/08 04:39:53;;;;;;;;;;;15.40;99.90;;;;;;5069662;28;19958;-79
2021/08/08 04:42:19;;;;;;;;;;;15.30;99.90;;;;;;5071581;28;19921;-89
2021/08/08 04:44:44;;;;;;;;;;;15.30;99.90;;;;;;5074718;28;19979;-77
2021/08/08 04:47:10;;;;;;;;;;;15.30;99.90;;;;;;5070846;28;19980;-77
2021/08/08 04:49:35;;;;;;;;;;;15.20;99.90;;;;;;5066989;28;19920;-78
2021/08/08 04:52:02;;;;;;;;;;;15.20;99.90;;;;;;5065636;28;19958;-79
2021/08/08 04:54:29;;;;;;;;;;;15.30;99.90;;;;;;5071261;28;19962;-79
2021/08/08 04:56:54;;;;;;;;;;;15.30;99.90;;;;;;5068268;28;19920;-80
2021/08/08 04:59:20;;;;;;;;;;;15.40;99.90;;;;;;5073915;28;19917;-77
2021/08/08 05:01:45;;;;;;;;;;;15.40;99.90;;;;;;5068815;28;19917;-76
2021/08/08 05:04:12;;;;;;;;;;;15.50;99.90;;;;;;5071975;28;19912;-79
2021/08/08 05:06:38;;;;;;;;;;;15.50;99.90;;;;;;5065186;28;19921;-80
2021/08/08 05:09:04;;;;;;;;;;;15.60;99.90;;;;;;5068235;28;20215;-78
2021/08/08 05:11:30;;;;;;;;;;;15.60;99.90;;;;;;5064986;28;19937;-77
2021/08/08 05:13:55;;;;;;;;;;;15.70;99.90;;;;;;5073579;28;19913;-78
2021/08/08 05:16:21;;;;;;;;;;;15.70;99.90;;;;;;5066447;28;19912;-79
2021/08/08 05:18:46;;;;;;;;;;;15.70;99.90;;;;;;5076246;28;19978;-79
2021/08/08 05:21:12;;;;;;;;;;;15.70;99.90;;;;;;5074790;28;19920;-85
2021/08/08 05:23:38;;;;;;;;;;;15.80;99.90;;;;;;5077446;28;19919;-77
2021/08/08 05:26:04;;;;;;;;;;;15.80;99.90;;;;;;5075714;28;20011;-79
2021/08/08 05:28:29;;;;;;;;;;;15.80;99.90;;;;;;5100491;28;19908;-78
2021/08/08 05:30:55;;;;;;;;;;;15.80;99.90;;;;;;5073285;28;19966;-78
2021/08/08 05:33:20;;;;;;;;;;;15.80;99.90;;;;;;5062562;28;20216;-79
2021/08/08 05:35:46;;;;;;;;;;;15.80;99.90;;;;;;5067027;28;19912;-79
2021/08/08 05:38:12;;;;;;;;;;;15.80;99.90;;;;;;5063684;28;19912;-78
2021/08/08 05:40:37;;;;;;;;;;;15.90;99.90;;;;;;5077996;28;19916;-85
2021/08/08 05:43:04;;;;;;;;;;;15.90;99.90;;;;;;5073712;28;20265;-80
2021/08/08 05:45:29;;;;;;;;;;;16.00;99.90;;;;;;5075151;28;19913;-78
2021/08/08 05:47:55;;;;;;;;;;;16.00;99.90;;;;;;5072480;28;20050;-78
2021/08/08 05:50:21;;;;;;;;;;;15.90;99.90;;;;;;5071350;28;20338;-79
2021/08/08 05:52:47;;;;;;;;;;;15.90;99.90;;;;;;5070742;28;19912;-79
2021/08/08 05:55:13;;;;;;;;;;;15.90;99.90;;;;;;5078957;28;20257;-78
2021/08/08 05:57:38;;;;;;;;;;;15.90;99.90;;;;;;5078153;28;19908;-80
2021/08/08 06:00:04;;;;;;;;;;;16.00;99.90;;;;;;5075567;28;20017;-81
2021/08/08 06:02:30;;;;;;;;;;;16.00;99.90;;;;;;5067828;28;19924;-78
2021/08/08 06:04:55;;;;;;;;;;;16.00;99.90;;;;;;5072078;28;20334;-78
2021/08/08 06:07:21;;;;;;;;;;;16.10;99.90;;;;;;5076201;28;19909;-79
2021/08/08 06:09:47;;;;;;;;;;;16.20;99.90;;;;;;5064413;28;19916;-80
2021/08/08 06:12:12;;;;;;;;;;;16.20;99.90;;;;;;5070780;28;19916;-77
2021/08/08 06:14:38;;;;;;;;;;;16.20;99.90;;;;;;5077391;28;20071;-82
2021/08/08 06:17:03;;;;;;;;;;;16.20;99.90;;;;;;5087882;28;20325;-78
2021/08/08 06:19:29;;;;;;;;;;;16.10;99.90;;;;;;5071588;28;20345;-78
2021/08/08 06:21:54;;;;;;;;;;;16.10;99.90;;;;;;5066190;28;19920;-79
2021/08/08 06:24:20;;;;;;;;;;;16.20;99.90;;;;;;5073404;28;20231;-80
2021/08/08 06:26:45;;;;;;;;;;;16.10;99.90;;;;;;5071866;28;19939;-80
2021/08/08 06:29:11;;;;;;;;;;;16.00;99.90;;;;;;5074193;28;19920;-78
2021/08/08 06:31:37;;;;;;;;;;;16.00;99.90;;;;;;5070098;28;20341;-78
2021/08/08 06:34:02;;;;;;;;;;;16.00;99.90;;;;;;5074375;28;20269;-78
2021/08/08 06:36:28;;;;;;;;;;;15.90;99.90;;;;;;5074243;28;20330;-76
2021/08/08 06:38:55;;;;;;;;;;;15.90;99.90;;;;;;5068636;28;19919;-77
2021/08/08 06:41:21;;;;;;;;;;;15.80;99.90;;;;;;5064561;28;19963;-76
2021/08/08 06:43:47;;;;;;;;;;;15.80;99.90;;;;;;5066747;28;19931;-76
2021/08/08 06:46:12;;;;;;;;;;;15.80;99.90;;;;;;5068022;28;21285;-77
2021/08/08 06:48:38;;;;;;;;;;;15.60;99.90;;;;;;5069823;28;19917;-78
2021/08/08 06:51:04;;;;;;;;;;;15.60;99.90;;;;;;5073099;28;19948;-77
2021/08/08 06:53:29;;;;;;;;;;;15.60;99.90;;;;;;5069139;28;19920;-78
2021/08/08 06:55:55;;;;;;;;;;;15.50;99.90;;;;;;5064549;28;20264;-75
2021/08/08 06:58:20;;;;;;;;;;;15.50;99.90;;;;;;5065745;28;19923;-76
2021/08/08 07:00:46;;;;;;;;;;;15.50;99.90;;;;;;5067543;28;19912;-75
2021/08/08 07:03:11;;;;;;;;;;;15.40;99.90;;;;;;5067018;28;21187;-79
2021/08/08 07:05:37;;;;;;;;;;;15.40;99.90;;;;;;5068384;28;19922;-77
2021/08/08 07:08:04;;;;;;;;;;;15.50;99.90;;;;;;5071106;28;19947;-76
2021/08/08 07:10:30;;;;;;;;;;;15.50;99.90;;;;;;5073840;28;20323;-78
2021/08/08 07:12:55;;;;;;;;;;;15.60;99.90;;;;;;5084613;28;19963;-77
2021/08/08 07:15:21;;;;;;;;;;;15.60;99.90;;;;;;5076187;28;20227;-80
2021/08/08 07:17:47;;;;;;;;;;;15.70;99.90;;;;;;5086008;28;20017;-78
2021/08/08 07:20:12;;;;;;;;;;;15.90;99.90;;;;;;5088831;28;19944;-79
2021/08/08 07:22:38;;;;;;;;;;;16.00;99.90;;;;;;5085720;28;19958;-80
2021/08/08 07:25:04;;;;;;;;;;;16.00;99.90;;;;;;5085762;28;19912;-79
2021/08/08 07:27:30;;;;;;;;;;;16.10;99.90;;;;;;5079719;28;19954;-78
2021/08/08 07:29:56;;;;;;;;;;;16.20;99.90;;;;;;5081494;28;19951;-82
2021/08/08 07:32:21;;;;;;;;;;;16.30;99.90;;;;;;5081122;28;19966;-80
2021/08/08 07:34:47;;;;;;;;;;;16.30;99.90;;;;;;5084027;28;19966;-80
2021/08/08 07:37:13;;;;;;;;;;;16.40;99.90;;;;;;5085421;28;19915;-79
2021/08/08 07:39:38;;;;;;;;;;;16.40;99.90;;;;;;5073330;28;19908;-81
2021/08/08 07:42:04;;;;;;;;;;;16.50;99.90;;;;;;5087310;28;19920;-80
2021/08/08 07:44:30;;;;;;;;;;;16.50;99.90;;;;;;5080700;28;20015;-80
2021/08/08 07:46:55;;;;;;;;;;;16.50;99.90;;;;;;5074070;28;19909;-80
2021/08/08 07:49:21;;;;;;;;;;;16.40;99.90;;;;;;5065788;28;19932;-79
2021/08/08 07:51:47;;;;;;;;;;;16.60;99.90;;;;;;5059729;28;19962;-80
2021/08/08 07:54:12;;;;;;;;;;;16.70;99.90;;;;;;5066953;28;19935;-78
2021/08/08 07:56:38;;;;;;;;;;;16.90;99.90;;;;;;5070257;28;19920;-79
2021/08/08 07:59:03;;;;;;;;;;;16.90;99.90;;;;;;5067112;28;19920;-78
2021/08/08 08:01:31;;;;;;;;;;;16.90;99.90;;;;;;5065461;28;20257;-78
2021/08/08 08:03:57;;;;;;;;;;;16.90;99.90;;;;;;5068549;28;19917;-82
2021/08/08 08:06:22;;;;;;;;;;;17.00;99.90;;;;;;5062998;28;20047;-83
2021/08/08 08:08:48;;;;;;;;;;;16.90;99.90;;;;;;5073313;28;19920;-82
2021/08/08 08:11:14;;;;;;;;;;;17.10;99.90;;;;;;5071812;28;19909;-84
2021/08/08 08:13:39;;;;;;;;;;;17.20;99.90;;;;;;5065289;28;19999;-80
2021/08/08 08:16:05;;;;;;;;;;;17.40;99.90;;;;;;5072823;28;20001;-80
2021/08/08 08:18:30;;;;;;;;;;;17.60;99.90;;;;;;5064055;28;19908;-80
2021/08/08 08:20:57;;;;;;;;;;;17.90;99.90;;;;;;5072814;28;19916;-80
2021/08/08 08:23:23;;;;;;;;;;;17.90;99.90;;;;;;5073510;28;20258;-78
2021/08/08 08:25:48;;;;;;;;;;;17.80;99.90;;;;;;5057577;28;19908;-81
2021/08/08 08:28:14;;;;;;;;;;;17.70;99.90;;;;;;5066540;28;19995;-83
2021/08/08 08:30:40;;;;;;;;;;;17.70;99.90;;;;;;5096831;28;19920;-79
2021/08/08 08:33:06;;;;;;;;;;;17.60;99.90;;;;;;5088369;28;19920;-93
2021/08/08 08:35:32;;;;;;;;;;;17.60;99.90;;;;;;5079039;28;19919;-80
2021/08/08 08:37:58;;;;;;;;;;;17.70;99.90;;;;;;5085150;28;19916;-80
2021/08/08 08:40:23;;;;;;;;;;;17.70;99.90;;;;;;5089462;28;19923;-80
2021/08/08 08:42:50;;;;;;;;;;;17.70;99.90;;;;;;5081281;28;19933;-84
2021/08/08 08:45:16;;;;;;;;;;;17.70;99.90;;;;;;5068953;28;19909;-82
2021/08/08 08:47:42;;;;;;;;;;;17.70;99.90;;;;;;5068106;28;19916;-81
2021/08/08 08:50:08;;;;;;;;;;;17.50;99.90;;;;;;5073907;28;19919;-77
2021/08/08 08:52:35;;;;;;;;;;;17.40;99.90;;;;;;5065348;28;19916;-85
2021/08/08 08:55:02;;;;;;;;;;;17.30;99.90;;;;;;5084797;28;19920;-79
2021/08/08 08:57:28;;;;;;;;;;;17.20;99.90;;;;;;5083584;28;19916;-77
2021/08/08 08:59:53;;;;;;;;;;;17.10;99.90;;;;;;5087743;28;20207;-83
2021/08/08 09:02:19;;;;;;;;;;;17.00;99.90;;;;;;5085293;28;19970;-79
2021/08/08 09:04:45;;;;;;;;;;;17.00;99.90;;;;;;5087597;28;19999;-79
2021/08/08 09:07:10;;;;;;;;;;;16.90;99.90;;;;;;5083459;28;19916;-78
2021/08/08 09:09:37;;;;;;;;;;;16.80;99.90;;;;;;5089859;28;19951;-79
2021/08/08 09:12:03;;;;;;;;;;;16.80;99.90;;;;;;5075041;28;19924;-82
2021/08/08 09:14:31;;;;;;;;;;;16.90;99.90;;;;;;5073981;28;19909;-81
2021/08/08 09:16:57;;;;;;;;;;;17.10;99.90;;;;;;5080681;28;20278;-82
2021/08/08 09:19:27;;;;;;;;;;;17.30;99.90;;;;;;5071381;28;20003;-79
2021/08/08 09:21:53;;;;;;;;;;;17.40;99.90;;;;;;5065611;28;19913;-81
2021/08/08 09:24:23;;;;;;;;;;;17.40;99.90;;;;;;5086144;28;19920;-77
2021/08/08 09:26:58;;;;;;;;;;;17.40;99.90;;;;;;5093182;28;19931;-80
2021/08/08 09:29:24;;;;;;;;;;;17.40;99.90;;;;;;5089377;28;20188;-82
2021/08/08 09:31:49;;;;;;;;;;;17.30;99.90;;;;;;5085616;28;19971;-85
2021/08/08 09:34:21;;;;;;;;;;;17.10;99.90;;;;;;5089467;28;19923;-81
2021/08/08 09:36:47;;;;;;;;;;;16.90;99.90;;;;;;5095534;28;19959;-80
2021/08/08 09:39:24;;;;;;;;;;;16.90;99.90;;;;;;5089118;28;20334;-79
2021/08/08 09:41:50;;;;;;;;;;;16.80;99.90;;;;;;5089597;28;19924;-80
2021/08/08 09:44:15;;;;;;;;;;;16.80;99.90;;;;;;5092487;28;19976;-80
2021/08/08 09:46:41;;;;;;;;;;;16.90;99.90;;;;;;5088989;28;19947;-80
2021/08/08 09:49:08;;;;;;;;;;;17.10;99.90;;;;;;5093723;28;19923;-80
2021/08/08 09:51:46;;;;;;;;;;;17.20;99.90;;;;;;5090094;28;19947;-78
2021/08/08 09:54:11;;;;;;;;;;;17.50;99.90;;;;;;5078046;28;19920;-83
2021/08/08 09:56:37;;;;;;;;;;;17.60;99.90;;;;;;5071647;28;20196;-86
2021/08/08 09:59:05;;;;;;;;;;;17.70;99.90;;;;;;5091195;28;19916;-76
2021/08/08 10:01:38;;;;;;;;;;;18.00;99.90;;;;;;5088993;28;19920;-78
2021/08/08 10:04:04;;;;;;;;;;;18.30;99.90;;;;;;5101517;28;20306;-79
2021/08/08 10:06:29;;;;;;;;;;;18.40;99.90;;;;;;5079870;28;19965;-77
2021/08/08 10:08:55;;;;;;;;;;;18.40;99.90;;;;;;5086297;28;19920;-80
2021/08/08 10:11:21;;;;;;;;;;;18.30;99.90;;;;;;5081029;28;20078;-79
2021/08/08 10:13:57;;;;;;;;;;;18.30;99.90;;;;;;5083720;28;20021;-77
2021/08/08 10:16:22;;;;;;;;;;;18.30;99.90;;;;;;5083319;28;20329;-77
2021/08/08 10:18:53;;;;;;;;;;;18.40;99.90;;;;;;5081830;28;19951;-78
2021/08/08 10:21:19;;;;;;;;;;;18.40;99.90;;;;;;5089336;28;19919;-81
2021/08/08 10:23:47;;;;;;;;;;;18.40;99.90;;;;;;5077500;28;19913;-80
2021/08/08 10:26:13;;;;;;;;;;;18.30;99.90;;;;;;5082371;28;20227;-82
2021/08/08 10:28:39;;;;;;;;;;;18.20;99.90;;;;;;5069933;28;19921;-85
2021/08/08 10:31:05;;;;;;;;;;;18.10;99.90;;;;;;5081055;28;19919;-79
2021/08/08 10:33:42;;;;;;;;;;;18.20;99.90;;;;;;5085808;28;19923;-83
2021/08/08 10:36:15;;;;;;;;;;;18.50;99.90;;;;;;5090862;28;19916;-78
2021/08/08 10:38:40;;;;;;;;;;;18.70;99.90;;;;;;5082397;28;20363;-79
2021/08/08 10:41:10;;;;;;;;;;;18.70;99.90;;;;;;5073513;28;19990;-80
2021/08/08 10:43:36;;;;;;;;;;;18.70;99.90;;;;;;5084680;28;20011;-88
2021/08/08 10:46:02;;;;;;;;;;;18.80;99.90;;;;;;5086998;28;20008;-79
2021/08/08 10:48:31;;;;;;;;;;;18.90;99.90;;;;;;5087261;28;19944;-79
2021/08/08 10:50:56;;;;;;;;;;;19.10;99.90;;;;;;5087270;28;19912;-80
2021/08/08 10:53:23;;;;;;;;;;;19.00;99.90;;;;;;5086602;28;19912;-79
2021/08/08 10:55:50;;;;;;;;;;;19.00;99.90;;;;;;5070755;28;20004;-85
2021/08/08 10:58:15;;;;;;;;;;;18.90;99.90;;;;;;5073712;28;19916;-80
2021/08/08 11:00:41;;;;;;;;;;;18.80;99.90;;;;;;5076730;28;19920;-81
2021/08/08 11:03:10;;;;;;;;;;;18.80;99.90;;;;;;5073300;28;19928;-83
2021/08/08 11:05:36;;;;;;;;;;;18.70;99.90;;;;;;5064052;28;20271;-78
2021/08/08 11:08:01;;;;;;;;;;;18.90;99.90;;;;;;5067515;28;20023;-90
2021/08/08 11:10:27;;;;;;;;;;;19.00;99.90;;;;;;5066847;28;19920;-80
2021/08/08 11:12:54;;;;;;;;;;;19.20;99.90;;;;;;5065749;28;19919;-80
2021/08/08 11:15:20;;;;;;;;;;;19.40;99.90;;;;;;5067357;28;20053;-85
2021/08/08 11:17:47;;;;;;;;;;;19.50;99.90;;;;;;5070212;28;19928;-79
2021/08/08 11:20:13;;;;;;;;;;;19.30;99.90;;;;;;5064596;28;19920;-85
2021/08/08 11:22:38;;;;;;;;;;;19.50;99.90;;;;;;5071336;28;20019;-84
2021/08/08 11:25:04;;;;;;;;;;;19.60;99.90;;;;;;5068109;28;20293;-86
2021/08/08 11:27:37;;;;;;;;;;;19.80;99.90;;;;;;5070625;28;19920;-83
2021/08/08 11:30:04;;;;;;;;;;;19.80;99.90;;;;;;5073606;28;19952;-79
2021/08/08 11:32:31;;;;;;;;;;;19.70;99.90;;;;;;5074639;28;19942;-83
2021/08/08 11:34:59;;;;;;;;;;;19.70;99.90;;;;;;5066701;28;20315;-81
2021/08/08 11:37:36;;;;;;;;;;;19.50;99.90;;;;;;5072583;28;20296;-85
2021/08/08 11:40:02;;;;;;;;;;;19.40;99.90;;;;;;5077004;28;19947;-83
2021/08/08 11:42:29;;;;;;;;;;;19.50;99.90;;;;;;5077583;28;20442;-82
2021/08/08 11:44:55;;;;;;;;;;;19.70;99.90;;;;;;5066814;28;19917;-82
2021/08/08 11:47:25;;;;;;;;;;;19.80;99.90;;;;;;5068099;28;20003;-83
2021/08/08 11:49:51;;;;;;;;;;;20.10;99.90;;;;;;5067499;28;19913;-84
2021/08/08 11:52:18;;;;;;;;;;;20.30;99.90;;;;;;5074697;28;20512;-80
2021/08/08 11:54:45;;;;;;;;;;;20.50;99.90;;;;;;5078469;28;19920;-85
2021/08/08 11:57:22;;;;;;;;;;;20.50;99.90;;;;;;5076914;28;19916;-86
2021/08/08 11:59:48;;;;;;;;;;;20.60;99.90;;;;;;5065734;28;19920;-86
2021/08/08 12:02:16;;;;;;;;;;;20.70;99.90;;;;;;5060125;28;19921;-82
2021/08/08 12:04:42;;;;;;;;;;;20.80;99.90;;;;;;5084250;28;20279;-83
2021/08/08 12:07:09;;;;;;;;;;;20.70;99.90;;;;;;5067006;28;19930;-85
2021/08/08 12:09:35;;;;;;;;;;;20.60;99.90;;;;;;5059887;28;19928;-84
2021/08/08 12:12:01;;;;;;;;;;;20.30;99.90;;;;;;5061626;28;19962;-86
2021/08/08 12:14:31;;;;;;;;;;;20.00;99.90;;;;;;5066779;28;19920;-82
2021/08/08 12:17:06;;;;;;;;;;;19.90;99.90;;;;;;5062006;28;19924;-84
2021/08/08 12:19:32;;;;;;;;;;;19.90;99.90;;;;;;5062806;28;19913;-83
2021/08/08 12:22:02;;;;;;;;;;;20.20;99.90;;;;;;5065223;28;19917;-78
2021/08/08 12:24:35;;;;;;;;;;;20.40;99.90;;;;;;5064737;28;19923;-79
2021/08/08 12:27:01;;;;;;;;;;;20.40;99.90;;;;;;5062001;28;20011;-79
2021/08/08 12:29:30;;;;;;;;;;;20.40;99.90;;;;;;5061821;28;20415;-86
2021/08/08 12:32:04;;;;;;;;;;;20.40;99.90;;;;;;5064690;28;19956;-86
2021/08/08 12:34:31;;;;;;;;;;;20.30;99.90;;;;;;5077820;28;19932;-80
2021/08/08 12:37:03;;;;;;;;;;;20.20;99.90;;;;;;5066901;28;20131;-87
2021/08/08 12:39:29;;;;;;;;;;;20.30;99.90;;;;;;5066360;28;19912;-81
2021/08/08 12:41:55;;;;;;;;;;;20.40;99.90;;;;;;5066446;28;19932;-87
2021/08/08 12:44:31;;;;;;;;;;;20.40;99.90;;;;;;5069872;28;19971;-84
2021/08/08 12:47:06;;;;;;;;;;;20.30;99.90;;;;;;5068224;28;19919;-85
2021/08/08 12:49:32;;;;;;;;;;;20.10;99.90;;;;;;5068126;28;19955;-84
2021/08/08 12:51:58;;;;;;;;;;;20.00;99.90;;;;;;5073661;28;19916;-90
2021/08/08 12:54:24;;;;;;;;;;;19.90;99.90;;;;;;5074500;28;19970;-81
2021/08/08 12:56:49;;;;;;;;;;;19.90;99.90;;;;;;5064742;28;20342;-80
2021/08/08 12:59:15;;;;;;;;;;;20.00;99.90;;;;;;5065971;28;19963;-84
2021/08/08 13:01:41;;;;;;;;;;;20.20;99.90;;;;;;5063254;28;20289;-81
2021/08/08 13:04:10;;;;;;;;;;;20.40;99.90;;;;;;5074646;28;19912;-83
2021/08/08 13:06:35;;;;;;;;;;;20.50;99.90;;;;;;5071032;28;20281;-84
2021/08/08 13:09:01;;;;;;;;;;;20.60;99.90;;;;;;5066644;28;19912;-83
2021/08/08 13:13:53;;;;;;;;;;;20.90;99.90;;;;;;5082600;28;19915;-83
2021/08/08 13:16:19;;;;;;;;;;;21.10;99.90;;;;;;5085271;28;19912;-80
2021/08/08 13:18:45;;;;;;;;;;;21.10;99.90;;;;;;5081882;28;19912;-80
2021/08/08 13:21:11;;;;;;;;;;;21.30;99.90;;;;;;5075559;28;19975;-81
2021/08/08 13:23:37;;;;;;;;;;;21.30;99.90;;;;;;5083022;28;19916;-79
2021/08/08 13:26:05;;;;;;;;;;;21.30;99.90;;;;;;5079498;28;19919;-81
2021/08/08 13:28:31;;;;;;;;;;;21.20;99.90;;;;;;5070419;28;19920;-80
2021/08/08 13:30:56;;;;;;;;;;;20.90;99.90;;;;;;5065816;28;20308;-79
2021/08/08 13:33:22;;;;;;;;;;;20.40;99.90;;;;;;5066255;28;20311;-81
2021/08/08 13:35:48;;;;;;;;;;;20.10;99.90;;;;;;5066565;28;19952;-84
2021/08/08 13:38:14;;;;;;;;;;;19.60;99.90;;;;;;5067998;28;19960;-81
2021/08/08 13:40:40;;;;;;;;;;;19.30;99.90;;;;;;5067833;28;19912;-81
2021/08/08 13:43:06;;;;;;;;;;;19.00;99.90;;;;;;5054315;28;19924;-81
2021/08/08 13:45:32;;;;;;;;;;;18.70;99.90;;;;;;5073159;28;19917;-86
2021/08/08 13:47:57;;;;;;;;;;;18.60;99.90;;;;;;5068008;28;19917;-82
2021/08/08 13:50:23;;;;;;;;;;;18.40;99.90;;;;;;5070282;28;20378;-84
2021/08/08 13:52:49;;;;;;;;;;;18.30;99.90;;;;;;5072813;28;20219;-83
2021/08/08 13:55:17;;;;;;;;;;;18.30;99.90;;;;;;5071885;28;19916;-82
2021/08/08 13:57:43;;;;;;;;;;;18.50;99.90;;;;;;5068892;28;19921;-83
2021/08/08 14:00:09;;;;;;;;;;;18.80;99.90;;;;;;5069171;28;19912;-82
2021/08/08 14:02:35;;;;;;;;;;;19.10;99.90;;;;;;5074815;28;19922;-82
2021/08/08 14:05:01;;;;;;;;;;;19.40;99.90;;;;;;5072917;28;20372;-80
2021/08/08 14:07:27;;;;;;;;;;;19.50;99.90;;;;;;5071883;28;20011;-80
2021/08/08 14:09:53;;;;;;;;;;;19.50;99.90;;;;;;5068391;28;19912;-80
2021/08/08 14:12:19;;;;;;;;;;;19.50;99.90;;;;;;5067850;28;19914;-86
2021/08/08 14:14:44;;;;;;;;;;;19.60;99.90;;;;;;5086613;28;19963;-83